sensor_id;sensor_type;location;lat;lon;timestamp;temperature;humidity
30174;DHT22;16985;50.814;8.530;2022-09-01T00:01:29;14.00;82.40
30174;DHT22;16985;50.814;8.530;2022-09-01T00:03:56;13.90;82.60
30174;DHT22;16985;50.814;8.530;2022-09-01T00:06:27;13.90;82.80
30174;DHT22;16985;50.814;8.530;2022-09-01T00:08:56;13.80;83.00
30174;DHT22;16985;50.814;8.530;2022-09-01T00:11:33;13.80;83.10
30174;DHT22;16985;50.814;8.530;2022-09-01T00:14:01;13.70;83.40
30174;DHT22;16985;50.814;8.530;2022-09-01T00:16:30;13.70;83.30
30174;DHT22;16985;50.814;8.530;2022-09-01T00:18:56;13.70;83.40
30174;DHT22;16985;50.814;8.530;2022-09-01T00:21:25;13.70;83.20
30174;DHT22;16985;50.814;8.530;2022-09-01T00:23:53;13.70;83.00
30174;DHT22;16985;50.814;8.530;2022-09-01T00:26:19;13.60;83.40
30174;DHT22;16985;50.814;8.530;2022-09-01T00:28:45;13.60;84.50
30174;DHT22;16985;50.814;8.530;2022-09-01T00:31:11;13.50;83.90
30174;DHT22;16985;50.814;8.530;2022-09-01T00:33:39;13.50;83.80
30174;DHT22;16985;50.814;8.530;2022-09-01T00:36:06;13.50;84.00
30174;DHT22;16985;50.814;8.530;2022-09-01T00:38:32;13.40;84.10
30174;DHT22;16985;50.814;8.530;2022-09-01T00:40:59;13.40;84.10
30174;DHT22;16985;50.814;8.530;2022-09-01T00:43:41;13.50;83.90
30174;DHT22;16985;50.814;8.530;2022-09-01T00:49:16;13.30;84.70
30174;DHT22;16985;50.814;8.530;2022-09-01T00:51:48;13.30;85.00
30174;DHT22;16985;50.814;8.530;2022-09-01T00:54:25;13.30;85.30
30174;DHT22;16985;50.814;8.530;2022-09-01T00:56:54;13.20;85.40
30174;DHT22;16985;50.814;8.530;2022-09-01T00:59:21;13.20;85.20
30174;DHT22;16985;50.814;8.530;2022-09-01T01:01:48;13.10;85.70
30174;DHT22;16985;50.814;8.530;2022-09-01T01:04:14;13.10;85.60
30174;DHT22;16985;50.814;8.530;2022-09-01T01:06:51;13.10;85.70
30174;DHT22;16985;50.814;8.530;2022-09-01T01:09:24;13.10;86.00
30174;DHT22;16985;50.814;8.530;2022-09-01T01:11:51;13.10;86.30
30174;DHT22;16985;50.814;8.530;2022-09-01T01:14:17;13.00;86.30
30174;DHT22;16985;50.814;8.530;2022-09-01T01:16:47;13.00;86.60
30174;DHT22;16985;50.814;8.530;2022-09-01T01:19:31;13.00;87.10
30174;DHT22;16985;50.814;8.530;2022-09-01T01:25:34;12.90;87.10
30174;DHT22;16985;50.814;8.530;2022-09-01T01:28:13;12.90;88.10
30174;DHT22;16985;50.814;8.530;2022-09-01T01:30:49;12.80;87.40
30174;DHT22;16985;50.814;8.530;2022-09-01T01:33:20;12.80;87.90
30174;DHT22;16985;50.814;8.530;2022-09-01T01:35:48;12.80;87.40
30174;DHT22;16985;50.814;8.530;2022-09-01T01:38:16;12.80;87.60
30174;DHT22;16985;50.814;8.530;2022-09-01T01:40:44;12.80;87.30
30174;DHT22;16985;50.814;8.530;2022-09-01T01:43:10;12.70;87.00
30174;DHT22;16985;50.814;8.530;2022-09-01T01:45:39;12.70;87.40
30174;DHT22;16985;50.814;8.530;2022-09-01T01:48:05;12.70;87.00
30174;DHT22;16985;50.814;8.530;2022-09-01T01:50:36;12.70;87.30
30174;DHT22;16985;50.814;8.530;2022-09-01T01:53:06;12.60;87.50
30174;DHT22;16985;50.814;8.530;2022-09-01T01:55:34;12.60;87.50
30174;DHT22;16985;50.814;8.530;2022-09-01T01:58:00;12.60;87.80
30174;DHT22;16985;50.814;8.530;2022-09-01T02:00:28;12.50;87.70
30174;DHT22;16985;50.814;8.530;2022-09-01T02:02:57;12.50;88.10
30174;DHT22;16985;50.814;8.530;2022-09-01T02:05:26;12.50;88.10
30174;DHT22;16985;50.814;8.530;2022-09-01T02:07:59;12.50;88.30
30174;DHT22;16985;50.814;8.530;2022-09-01T02:10:38;12.40;88.60
30174;DHT22;16985;50.814;8.530;2022-09-01T02:13:08;12.40;88.60
30174;DHT22;16985;50.814;8.530;2022-09-01T02:15:42;12.30;88.80
30174;DHT22;16985;50.814;8.530;2022-09-01T02:18:21;12.30;88.80
30174;DHT22;16985;50.814;8.530;2022-09-01T02:20:56;12.30;88.80
30174;DHT22;16985;50.814;8.530;2022-09-01T02:23:25;12.30;88.40
30174;DHT22;16985;50.814;8.530;2022-09-01T02:25:54;12.30;88.60
30174;DHT22;16985;50.814;8.530;2022-09-01T02:28:25;12.30;88.80
30174;DHT22;16985;50.814;8.530;2022-09-01T02:30:53;12.20;88.70
30174;DHT22;16985;50.814;8.530;2022-09-01T02:33:24;12.20;89.30
30174;DHT22;16985;50.814;8.530;2022-09-01T02:35:55;12.20;89.60
30174;DHT22;16985;50.814;8.530;2022-09-01T02:38:26;12.10;89.60
30174;DHT22;16985;50.814;8.530;2022-09-01T02:40:54;12.10;89.50
30174;DHT22;16985;50.814;8.530;2022-09-01T02:43:21;12.10;89.60
30174;DHT22;16985;50.814;8.530;2022-09-01T02:45:49;12.10;89.70
30174;DHT22;16985;50.814;8.530;2022-09-01T02:48:19;12.00;89.70
30174;DHT22;16985;50.814;8.530;2022-09-01T02:50:49;12.00;89.70
30174;DHT22;16985;50.814;8.530;2022-09-01T02:53:15;12.00;90.00
30174;DHT22;16985;50.814;8.530;2022-09-01T02:55:43;11.90;90.00
30174;DHT22;16985;50.814;8.530;2022-09-01T02:58:09;11.90;90.00
30174;DHT22;16985;50.814;8.530;2022-09-01T03:00:37;11.90;90.10
30174;DHT22;16985;50.814;8.530;2022-09-01T03:03:05;11.90;90.10
30174;DHT22;16985;50.814;8.530;2022-09-01T03:05:32;11.90;90.20
30174;DHT22;16985;50.814;8.530;2022-09-01T03:08:05;11.80;90.30
30174;DHT22;16985;50.814;8.530;2022-09-01T03:10:38;11.80;90.30
30174;DHT22;16985;50.814;8.530;2022-09-01T03:13:19;11.80;90.40
30174;DHT22;16985;50.814;8.530;2022-09-01T03:15:47;11.80;90.50
30174;DHT22;16985;50.814;8.530;2022-09-01T03:18:14;11.80;90.20
30174;DHT22;16985;50.814;8.530;2022-09-01T03:20:43;11.80;90.30
30174;DHT22;16985;50.814;8.530;2022-09-01T03:23:13;11.80;90.30
30174;DHT22;16985;50.814;8.530;2022-09-01T03:25:43;11.80;90.20
30174;DHT22;16985;50.814;8.530;2022-09-01T03:28:10;11.70;90.40
30174;DHT22;16985;50.814;8.530;2022-09-01T03:30:43;11.70;90.30
30174;DHT22;16985;50.814;8.530;2022-09-01T03:33:15;11.70;90.30
30174;DHT22;16985;50.814;8.530;2022-09-01T03:35:42;11.70;90.30
30174;DHT22;16985;50.814;8.530;2022-09-01T03:38:09;11.60;90.20
30174;DHT22;16985;50.814;8.530;2022-09-01T03:40:38;11.60;90.50
30174;DHT22;16985;50.814;8.530;2022-09-01T03:43:07;11.50;90.40
30174;DHT22;16985;50.814;8.530;2022-09-01T03:45:37;11.50;90.60
30174;DHT22;16985;50.814;8.530;2022-09-01T03:48:05;11.50;90.50
30174;DHT22;16985;50.814;8.530;2022-09-01T03:50:36;11.50;90.70
30174;DHT22;16985;50.814;8.530;2022-09-01T03:53:08;11.40;90.90
30174;DHT22;16985;50.814;8.530;2022-09-01T03:55:35;11.50;90.80
30174;DHT22;16985;50.814;8.530;2022-09-01T03:58:07;11.40;90.80
30174;DHT22;16985;50.814;8.530;2022-09-01T04:00:37;11.40;90.90
30174;DHT22;16985;50.814;8.530;2022-09-01T04:03:08;11.40;91.00
30174;DHT22;16985;50.814;8.530;2022-09-01T04:05:41;11.40;90.90
30174;DHT22;16985;50.814;8.530;2022-09-01T04:08:10;11.40;91.00
30174;DHT22;16985;50.814;8.530;2022-09-01T04:10:51;11.40;91.00
30174;DHT22;16985;50.814;8.530;2022-09-01T04:13:28;11.40;91.20
30174;DHT22;16985;50.814;8.530;2022-09-01T04:15:57;11.40;91.00
30174;DHT22;16985;50.814;8.530;2022-09-01T04:18:23;11.30;90.90
30174;DHT22;16985;50.814;8.530;2022-09-01T04:20:52;11.30;91.00
30174;DHT22;16985;50.814;8.530;2022-09-01T04:23:33;11.30;90.90
30174;DHT22;16985;50.814;8.530;2022-09-01T04:26:11;11.20;91.00
30174;DHT22;16985;50.814;8.530;2022-09-01T04:28:42;11.20;91.10
30174;DHT22;16985;50.814;8.530;2022-09-01T04:31:19;11.20;91.00
30174;DHT22;16985;50.814;8.530;2022-09-01T04:33:49;11.20;91.10
30174;DHT22;16985;50.814;8.530;2022-09-01T04:36:20;11.10;91.10
30174;DHT22;16985;50.814;8.530;2022-09-01T04:38:54;11.10;91.10
30174;DHT22;16985;50.814;8.530;2022-09-01T04:41:29;11.10;91.10
30174;DHT22;16985;50.814;8.530;2022-09-01T04:43:59;11.00;91.40
30174;DHT22;16985;50.814;8.530;2022-09-01T04:46:35;11.00;91.80
30174;DHT22;16985;50.814;8.530;2022-09-01T04:49:05;11.00;91.40
30174;DHT22;16985;50.814;8.530;2022-09-01T04:51:40;11.00;91.50
30174;DHT22;16985;50.814;8.530;2022-09-01T04:54:09;11.00;91.60
30174;DHT22;16985;50.814;8.530;2022-09-01T04:56:42;11.00;91.80
30174;DHT22;16985;50.814;8.530;2022-09-01T04:59:13;11.00;91.80
30174;DHT22;16985;50.814;8.530;2022-09-01T05:01:40;11.00;91.80
30174;DHT22;16985;50.814;8.530;2022-09-01T05:04:19;10.90;91.80
30174;DHT22;16985;50.814;8.530;2022-09-01T05:06:50;10.90;92.10
30174;DHT22;16985;50.814;8.530;2022-09-01T05:09:32;10.90;91.90
30174;DHT22;16985;50.814;8.530;2022-09-01T05:12:10;11.00;92.00
30174;DHT22;16985;50.814;8.530;2022-09-01T05:14:39;10.90;92.00
30174;DHT22;16985;50.814;8.530;2022-09-01T05:17:08;10.90;92.10
30174;DHT22;16985;50.814;8.530;2022-09-01T05:19:40;10.90;92.20
30174;DHT22;16985;50.814;8.530;2022-09-01T05:22:12;11.50;92.40
30174;DHT22;16985;50.814;8.530;2022-09-01T05:24:42;10.90;92.30
30174;DHT22;16985;50.814;8.530;2022-09-01T05:27:09;10.90;92.30
30174;DHT22;16985;50.814;8.530;2022-09-01T05:29:37;10.90;92.50
30174;DHT22;16985;50.814;8.530;2022-09-01T05:32:06;10.90;92.50
30174;DHT22;16985;50.814;8.530;2022-09-01T05:34:36;10.90;92.60
30174;DHT22;16985;50.814;8.530;2022-09-01T05:37:05;11.00;92.50
30174;DHT22;16985;50.814;8.530;2022-09-01T05:39:33;11.00;92.20
30174;DHT22;16985;50.814;8.530;2022-09-01T05:42:01;11.00;92.50
30174;DHT22;16985;50.814;8.530;2022-09-01T05:44:29;11.00;92.70
30174;DHT22;16985;50.814;8.530;2022-09-01T05:46:57;11.00;92.40
30174;DHT22;16985;50.814;8.530;2022-09-01T05:49:25;11.00;92.20
30174;DHT22;16985;50.814;8.530;2022-09-01T05:51:53;11.10;92.30
30174;DHT22;16985;50.814;8.530;2022-09-01T05:54:24;11.10;92.50
30174;DHT22;16985;50.814;8.530;2022-09-01T05:56:54;11.10;92.20
30174;DHT22;16985;50.814;8.530;2022-09-01T05:59:25;11.20;92.60
30174;DHT22;16985;50.814;8.530;2022-09-01T06:02:02;11.10;92.90
30174;DHT22;16985;50.814;8.530;2022-09-01T06:04:33;11.20;92.60
30174;DHT22;16985;50.814;8.530;2022-09-01T06:07:03;11.20;92.80
30174;DHT22;16985;50.814;8.530;2022-09-01T06:09:32;11.20;93.20
30174;DHT22;16985;50.814;8.530;2022-09-01T06:11:58;11.30;92.90
30174;DHT22;16985;50.814;8.530;2022-09-01T06:14:24;11.30;93.20
30174;DHT22;16985;50.814;8.530;2022-09-01T06:16:51;11.40;93.10
30174;DHT22;16985;50.814;8.530;2022-09-01T06:19:18;11.40;93.10
30174;DHT22;16985;50.814;8.530;2022-09-01T06:21:45;11.40;93.30
30174;DHT22;16985;50.814;8.530;2022-09-01T06:24:12;11.50;93.60
30174;DHT22;16985;50.814;8.530;2022-09-01T06:26:38;11.50;93.60
30174;DHT22;16985;50.814;8.530;2022-09-01T06:29:08;11.60;93.60
30174;DHT22;16985;50.814;8.530;2022-09-01T06:31:43;11.60;93.60
30174;DHT22;16985;50.814;8.530;2022-09-01T06:34:16;11.70;93.70
30174;DHT22;16985;50.814;8.530;2022-09-01T06:36:45;11.80;94.40
30174;DHT22;16985;50.814;8.530;2022-09-01T06:39:14;11.90;95.60
30174;DHT22;16985;50.814;8.530;2022-09-01T06:41:50;11.90;95.40
30174;DHT22;16985;50.814;8.530;2022-09-01T06:44:21;12.00;95.70
30174;DHT22;16985;50.814;8.530;2022-09-01T06:46:53;12.10;96.00
30174;DHT22;16985;50.814;8.530;2022-09-01T06:49:20;12.10;95.80
30174;DHT22;16985;50.814;8.530;2022-09-01T06:51:48;12.20;96.20
30174;DHT22;16985;50.814;8.530;2022-09-01T06:54:21;12.90;96.30
30174;DHT22;16985;50.814;8.530;2022-09-01T06:56:47;12.40;96.30
30174;DHT22;16985;50.814;8.530;2022-09-01T06:59:14;12.40;96.40
30174;DHT22;16985;50.814;8.530;2022-09-01T07:01:43;12.50;96.40
30174;DHT22;16985;50.814;8.530;2022-09-01T07:04:09;12.60;96.40
30174;DHT22;16985;50.814;8.530;2022-09-01T07:06:40;12.70;96.90
30174;DHT22;16985;50.814;8.530;2022-09-01T07:09:15;12.70;96.90
30174;DHT22;16985;50.814;8.530;2022-09-01T07:11:42;12.80;96.90
30174;DHT22;16985;50.814;8.530;2022-09-01T07:14:09;12.90;96.40
30174;DHT22;16985;50.814;8.530;2022-09-01T07:16:37;13.00;96.00
30174;DHT22;16985;50.814;8.530;2022-09-01T07:19:06;13.10;95.70
30174;DHT22;16985;50.814;8.530;2022-09-01T07:21:51;13.20;95.40
30174;DHT22;16985;50.814;8.530;2022-09-01T07:24:18;13.30;95.00
30174;DHT22;16985;50.814;8.530;2022-09-01T07:27:03;13.40;94.90
30174;DHT22;16985;50.814;8.530;2022-09-01T07:29:29;13.40;94.40
30174;DHT22;16985;50.814;8.530;2022-09-01T07:31:55;13.50;94.10
30174;DHT22;16985;50.814;8.530;2022-09-01T07:34:21;13.60;93.80
30174;DHT22;16985;50.814;8.530;2022-09-01T07:36:47;13.70;93.60
30174;DHT22;16985;50.814;8.530;2022-09-01T07:39:14;13.80;93.30
30174;DHT22;16985;50.814;8.530;2022-09-01T07:41:48;13.90;93.00
30174;DHT22;16985;50.814;8.530;2022-09-01T07:44:37;14.00;92.90
30174;DHT22;16985;50.814;8.530;2022-09-01T07:47:22;14.10;92.80
30174;DHT22;16985;50.814;8.530;2022-09-01T07:49:47;14.20;92.60
30174;DHT22;16985;50.814;8.530;2022-09-01T07:52:13;14.30;92.50
30174;DHT22;16985;50.814;8.530;2022-09-01T07:54:42;14.40;92.20
30174;DHT22;16985;50.814;8.530;2022-09-01T07:57:08;14.50;92.00
30174;DHT22;16985;50.814;8.530;2022-09-01T07:59:34;14.60;91.80
30174;DHT22;16985;50.814;8.530;2022-09-01T08:02:06;14.70;91.70
30174;DHT22;16985;50.814;8.530;2022-09-01T08:04:32;14.90;91.60
30174;DHT22;16985;50.814;8.530;2022-09-01T08:06:59;15.00;91.40
30174;DHT22;16985;50.814;8.530;2022-09-01T08:09:26;15.10;91.40
30174;DHT22;16985;50.814;8.530;2022-09-01T08:11:52;15.20;91.30
30174;DHT22;16985;50.814;8.530;2022-09-01T08:14:18;15.40;91.00
30174;DHT22;16985;50.814;8.530;2022-09-01T08:16:44;15.50;90.60
30174;DHT22;16985;50.814;8.530;2022-09-01T08:19:11;15.60;90.30
30174;DHT22;16985;50.814;8.530;2022-09-01T08:21:57;15.80;90.20
30174;DHT22;16985;50.814;8.530;2022-09-01T08:24:35;15.90;89.80
30174;DHT22;16985;50.814;8.530;2022-09-01T08:27:00;16.10;89.40
30174;DHT22;16985;50.814;8.530;2022-09-01T08:29:26;16.30;88.90
30174;DHT22;16985;50.814;8.530;2022-09-01T08:31:52;16.40;88.40
30174;DHT22;16985;50.814;8.530;2022-09-01T08:34:19;16.60;87.90
30174;DHT22;16985;50.814;8.530;2022-09-01T08:36:44;16.70;87.00
30174;DHT22;16985;50.814;8.530;2022-09-01T08:39:11;16.80;86.10
30174;DHT22;16985;50.814;8.530;2022-09-01T08:42:07;17.00;85.70
30174;DHT22;16985;50.814;8.530;2022-09-01T08:44:50;17.00;85.20
30174;DHT22;16985;50.814;8.530;2022-09-01T08:47:21;17.10;84.60
30174;DHT22;16985;50.814;8.530;2022-09-01T08:49:48;17.20;84.10
30174;DHT22;16985;50.814;8.530;2022-09-01T08:52:27;17.40;83.90
30174;DHT22;16985;50.814;8.530;2022-09-01T08:55:08;17.40;83.80
30174;DHT22;16985;50.814;8.530;2022-09-01T08:57:42;17.60;83.20
30174;DHT22;16985;50.814;8.530;2022-09-01T09:00:22;17.70;82.60
30174;DHT22;16985;50.814;8.530;2022-09-01T09:09:05;18.20;81.40
30174;DHT22;16985;50.814;8.530;2022-09-01T09:17:12;18.70;78.80
30174;DHT22;16985;50.814;8.530;2022-09-01T09:19:42;18.90;78.00
30174;DHT22;16985;50.814;8.530;2022-09-01T09:22:15;19.10;77.80
30174;DHT22;16985;50.814;8.530;2022-09-01T09:27:19;19.50;76.50
30174;DHT22;16985;50.814;8.530;2022-09-01T09:30:10;19.70;75.80
30174;DHT22;16985;50.814;8.530;2022-09-01T09:32:47;19.90;75.00
30174;DHT22;16985;50.814;8.530;2022-09-01T09:37:55;20.20;73.00
30174;DHT22;16985;50.814;8.530;2022-09-01T09:40:23;20.30;72.20
30174;DHT22;16985;50.814;8.530;2022-09-01T09:45:39;20.60;71.20
30174;DHT22;16985;50.814;8.530;2022-09-01T09:48:25;20.80;70.80
30174;DHT22;16985;50.814;8.530;2022-09-01T09:50:52;21.00;70.60
30174;DHT22;16985;50.814;8.530;2022-09-01T09:53:29;21.10;69.40
30174;DHT22;16985;50.814;8.530;2022-09-01T09:56:06;21.30;68.70
30174;DHT22;16985;50.814;8.530;2022-09-01T09:58:41;21.40;68.00
30174;DHT22;16985;50.814;8.530;2022-09-01T10:01:13;21.60;67.50
30174;DHT22;16985;50.814;8.530;2022-09-01T10:04:00;21.60;66.70
30174;DHT22;16985;50.814;8.530;2022-09-01T10:09:07;21.90;65.70
30174;DHT22;16985;50.814;8.530;2022-09-01T10:11:56;22.20;65.10
30174;DHT22;16985;50.814;8.530;2022-09-01T10:14:27;22.30;64.40
30174;DHT22;16985;50.814;8.530;2022-09-01T10:17:02;22.60;63.30
30174;DHT22;16985;50.814;8.530;2022-09-01T10:19:32;22.50;62.30
30174;DHT22;16985;50.814;8.530;2022-09-01T10:21:58;22.90;61.90
30174;DHT22;16985;50.814;8.530;2022-09-01T10:24:37;23.00;61.30
30174;DHT22;16985;50.814;8.530;2022-09-01T10:27:07;23.70;61.40
30174;DHT22;16985;50.814;8.530;2022-09-01T10:29:54;23.00;60.00
30174;DHT22;16985;50.814;8.530;2022-09-01T10:32:26;23.20;59.30
30174;DHT22;16985;50.814;8.530;2022-09-01T10:34:56;23.20;58.70
30174;DHT22;16985;50.814;8.530;2022-09-01T10:37:22;23.40;58.40
30174;DHT22;16985;50.814;8.530;2022-09-01T10:42:46;23.40;57.90
30174;DHT22;16985;50.814;8.530;2022-09-01T10:45:36;23.40;57.80
30174;DHT22;16985;50.814;8.530;2022-09-01T10:48:23;23.30;57.80
30174;DHT22;16985;50.814;8.530;2022-09-01T10:51:33;23.40;57.80
30174;DHT22;16985;50.814;8.530;2022-09-01T10:53:53;23.40;57.90
30174;DHT22;16985;50.814;8.530;2022-09-01T10:59:24;23.50;57.80
30174;DHT22;16985;50.814;8.530;2022-09-01T11:04:22;23.30;57.50
30174;DHT22;16985;50.814;8.530;2022-09-01T11:06:58;23.30;57.70
30174;DHT22;16985;50.814;8.530;2022-09-01T11:09:46;23.30;57.40
30174;DHT22;16985;50.814;8.530;2022-09-01T11:12:56;23.30;57.90
30174;DHT22;16985;50.814;8.530;2022-09-01T11:15:37;23.50;57.80
30174;DHT22;16985;50.814;8.530;2022-09-01T11:18:13;23.60;57.10
30174;DHT22;16985;50.814;8.530;2022-09-01T11:20:42;23.60;57.10
30174;DHT22;16985;50.814;8.530;2022-09-01T11:23:24;23.70;56.90
30174;DHT22;16985;50.814;8.530;2022-09-01T11:25:59;23.80;56.00
30174;DHT22;16985;50.814;8.530;2022-09-01T11:33:52;23.80;55.50
30174;DHT22;16985;50.814;8.530;2022-09-01T11:39:27;24.10;55.40
30174;DHT22;16985;50.814;8.530;2022-09-01T11:42:15;24.20;54.80
30174;DHT22;16985;50.814;8.530;2022-09-01T11:45:17;24.20;54.90
30174;DHT22;16985;50.814;8.530;2022-09-01T11:47:46;24.20;54.70
30174;DHT22;16985;50.814;8.530;2022-09-01T11:52:56;24.30;54.60
30174;DHT22;16985;50.814;8.530;2022-09-01T11:57:57;24.70;54.00
30174;DHT22;16985;50.814;8.530;2022-09-01T12:00:34;24.80;53.80
30174;DHT22;16985;50.814;8.530;2022-09-01T12:05:51;25.40;52.40
30174;DHT22;16985;50.814;8.530;2022-09-01T12:08:25;25.60;51.60
30174;DHT22;16985;50.814;8.530;2022-09-01T12:11:10;25.70;51.30
30174;DHT22;16985;50.814;8.530;2022-09-01T12:13:39;25.90;50.60
30174;DHT22;16985;50.814;8.530;2022-09-01T12:16:09;26.00;50.10
30174;DHT22;16985;50.814;8.530;2022-09-01T12:18:44;26.20;50.00
30174;DHT22;16985;50.814;8.530;2022-09-01T12:24:18;26.40;49.70
30174;DHT22;16985;50.814;8.530;2022-09-01T12:26:48;26.50;49.50
30174;DHT22;16985;50.814;8.530;2022-09-01T12:29:16;26.60;49.20
30174;DHT22;16985;50.814;8.530;2022-09-01T12:31:44;26.60;48.90
30174;DHT22;16985;50.814;8.530;2022-09-01T12:34:38;26.80;48.90
30174;DHT22;16985;50.814;8.530;2022-09-01T12:37:19;26.90;48.60
30174;DHT22;16985;50.814;8.530;2022-09-01T12:39:58;26.90;48.10
30174;DHT22;16985;50.814;8.530;2022-09-01T12:42:25;26.90;47.60
30174;DHT22;16985;50.814;8.530;2022-09-01T12:45:05;26.90;47.70
30174;DHT22;16985;50.814;8.530;2022-09-01T12:49:59;26.40;47.70
30174;DHT22;16985;50.814;8.530;2022-09-01T12:52:27;26.30;47.70
30174;DHT22;16985;50.814;8.530;2022-09-01T12:55:08;26.10;47.80
30174;DHT22;16985;50.814;8.530;2022-09-01T12:57:52;26.10;47.90
30174;DHT22;16985;50.814;8.530;2022-09-01T13:00:22;26.10;48.10
30174;DHT22;16985;50.814;8.530;2022-09-01T13:03:02;26.20;48.20
30174;DHT22;16985;50.814;8.530;2022-09-01T13:05:39;26.30;47.80
30174;DHT22;16985;50.814;8.530;2022-09-01T13:08:16;26.40;47.80
30174;DHT22;16985;50.814;8.530;2022-09-01T13:13:15;26.70;47.00
30174;DHT22;16985;50.814;8.530;2022-09-01T13:15:43;26.80;47.10
30174;DHT22;16985;50.814;8.530;2022-09-01T13:18:16;26.90;47.00
30174;DHT22;16985;50.814;8.530;2022-09-01T13:20:42;26.90;46.60
30174;DHT22;16985;50.814;8.530;2022-09-01T13:23:08;26.90;46.60
30174;DHT22;16985;50.814;8.530;2022-09-01T13:25:37;26.80;46.50
30174;DHT22;16985;50.814;8.530;2022-09-01T13:28:05;26.60;46.40
30174;DHT22;16985;50.814;8.530;2022-09-01T13:30:32;26.60;46.50
30174;DHT22;16985;50.814;8.530;2022-09-01T13:32:59;26.50;46.70
30174;DHT22;16985;50.814;8.530;2022-09-01T13:35:25;26.40;46.80
30174;DHT22;16985;50.814;8.530;2022-09-01T13:37:51;26.40;46.70
30174;DHT22;16985;50.814;8.530;2022-09-01T13:40:19;26.40;47.50
30174;DHT22;16985;50.814;8.530;2022-09-01T13:42:48;26.40;47.00
30174;DHT22;16985;50.814;8.530;2022-09-01T13:45:18;26.60;46.90
30174;DHT22;16985;50.814;8.530;2022-09-01T13:47:47;26.70;46.70
30174;DHT22;16985;50.814;8.530;2022-09-01T13:50:14;26.70;46.40
30174;DHT22;16985;50.814;8.530;2022-09-01T13:52:46;26.90;46.30
30174;DHT22;16985;50.814;8.530;2022-09-01T13:55:18;26.80;45.80
30174;DHT22;16985;50.814;8.530;2022-09-01T13:57:46;26.90;45.60
30174;DHT22;16985;50.814;8.530;2022-09-01T14:00:18;26.90;45.30
30174;DHT22;16985;50.814;8.530;2022-09-01T14:02:47;26.80;45.50
30174;DHT22;16985;50.814;8.530;2022-09-01T14:05:35;26.90;45.40
30174;DHT22;16985;50.814;8.530;2022-09-01T14:08:05;27.00;45.60
30174;DHT22;16985;50.814;8.530;2022-09-01T14:10:40;27.10;45.80
30174;DHT22;16985;50.814;8.530;2022-09-01T14:13:08;27.20;45.70
30174;DHT22;16985;50.814;8.530;2022-09-01T14:15:35;27.20;45.20
30174;DHT22;16985;50.814;8.530;2022-09-01T14:18:01;27.10;45.30
30174;DHT22;16985;50.814;8.530;2022-09-01T14:20:31;27.00;45.40
30174;DHT22;16985;50.814;8.530;2022-09-01T14:23:03;26.90;45.70
30174;DHT22;16985;50.814;8.530;2022-09-01T14:25:31;27.10;45.80
30174;DHT22;16985;50.814;8.530;2022-09-01T14:27:58;26.60;45.70
30174;DHT22;16985;50.814;8.530;2022-09-01T14:30:26;26.40;46.00
30174;DHT22;16985;50.814;8.530;2022-09-01T14:32:53;26.40;46.30
30174;DHT22;16985;50.814;8.530;2022-09-01T14:35:21;26.30;46.40
30174;DHT22;16985;50.814;8.530;2022-09-01T14:37:54;26.40;46.70
30174;DHT22;16985;50.814;8.530;2022-09-01T14:40:21;26.40;46.60
30174;DHT22;16985;50.814;8.530;2022-09-01T14:42:49;26.50;46.70
30174;DHT22;16985;50.814;8.530;2022-09-01T14:45:23;26.60;46.30
30174;DHT22;16985;50.814;8.530;2022-09-01T14:47:53;26.70;46.10
30174;DHT22;16985;50.814;8.530;2022-09-01T14:50:22;26.70;45.60
30174;DHT22;16985;50.814;8.530;2022-09-01T14:52:50;26.80;46.00
30174;DHT22;16985;50.814;8.530;2022-09-01T14:55:18;26.80;45.60
30174;DHT22;16985;50.814;8.530;2022-09-01T14:57:45;26.70;45.20
30174;DHT22;16985;50.814;8.530;2022-09-01T15:00:11;26.60;45.00
30174;DHT22;16985;50.814;8.530;2022-09-01T15:02:39;26.50;45.00
30174;DHT22;16985;50.814;8.530;2022-09-01T15:05:06;26.40;45.20
30174;DHT22;16985;50.814;8.530;2022-09-01T15:07:33;26.30;45.40
30174;DHT22;16985;50.814;8.530;2022-09-01T15:10:03;26.20;45.70
30174;DHT22;16985;50.814;8.530;2022-09-01T15:12:30;26.10;46.10
30174;DHT22;16985;50.814;8.530;2022-09-01T15:14:57;26.00;46.30
30174;DHT22;16985;50.814;8.530;2022-09-01T15:17:25;25.80;46.30
30174;DHT22;16985;50.814;8.530;2022-09-01T15:19:51;25.80;46.40
30174;DHT22;16985;50.814;8.530;2022-09-01T15:22:17;25.70;46.30
30174;DHT22;16985;50.814;8.530;2022-09-01T15:24:43;25.70;46.30
30174;DHT22;16985;50.814;8.530;2022-09-01T15:27:08;25.60;46.40
30174;DHT22;16985;50.814;8.530;2022-09-01T15:29:36;25.60;46.30
30174;DHT22;16985;50.814;8.530;2022-09-01T15:32:11;25.60;46.30
30174;DHT22;16985;50.814;8.530;2022-09-01T15:34:38;25.60;46.20
30174;DHT22;16985;50.814;8.530;2022-09-01T15:37:04;25.60;46.30
30174;DHT22;16985;50.814;8.530;2022-09-01T15:39:31;25.60;46.30
30174;DHT22;16985;50.814;8.530;2022-09-01T15:41:57;25.60;46.30
30174;DHT22;16985;50.814;8.530;2022-09-01T15:44:26;25.60;46.40
30174;DHT22;16985;50.814;8.530;2022-09-01T15:46:52;25.60;46.40
30174;DHT22;16985;50.814;8.530;2022-09-01T15:49:18;25.60;46.50
30174;DHT22;16985;50.814;8.530;2022-09-01T15:51:44;25.60;46.30
30174;DHT22;16985;50.814;8.530;2022-09-01T15:54:16;25.50;46.30
30174;DHT22;16985;50.814;8.530;2022-09-01T15:56:43;25.50;46.50
30174;DHT22;16985;50.814;8.530;2022-09-01T15:59:10;25.40;46.50
30174;DHT22;16985;50.814;8.530;2022-09-01T16:01:39;25.50;46.60
30174;DHT22;16985;50.814;8.530;2022-09-01T16:04:08;25.50;46.90
30174;DHT22;16985;50.814;8.530;2022-09-01T16:06:41;25.50;46.70
30174;DHT22;16985;50.814;8.530;2022-09-01T16:09:10;25.50;46.70
30174;DHT22;16985;50.814;8.530;2022-09-01T16:11:38;25.40;46.80
30174;DHT22;16985;50.814;8.530;2022-09-01T16:14:05;25.30;47.40
30174;DHT22;16985;50.814;8.530;2022-09-01T16:19:40;25.20;47.10
30174;DHT22;16985;50.814;8.530;2022-09-01T16:22:26;25.10;46.90
30174;DHT22;16985;50.814;8.530;2022-09-01T16:25:26;25.00;47.10
30174;DHT22;16985;50.814;8.530;2022-09-01T16:27:56;24.90;47.10
30174;DHT22;16985;50.814;8.530;2022-09-01T16:30:28;24.80;47.00
30174;DHT22;16985;50.814;8.530;2022-09-01T16:32:57;24.70;47.10
30174;DHT22;16985;50.814;8.530;2022-09-01T16:35:34;24.60;47.30
30174;DHT22;16985;50.814;8.530;2022-09-01T16:39:06;24.50;47.50
30174;DHT22;16985;50.814;8.530;2022-09-01T16:41:22;24.40;47.40
30174;DHT22;16985;50.814;8.530;2022-09-01T16:44:23;24.40;47.70
30174;DHT22;16985;50.814;8.530;2022-09-01T16:47:29;24.30;47.70
30174;DHT22;16985;50.814;8.530;2022-09-01T16:50:17;24.20;47.80
30174;DHT22;16985;50.814;8.530;2022-09-01T16:56:07;24.10;48.30
30174;DHT22;16985;50.814;8.530;2022-09-01T17:05:02;23.80;48.70
30174;DHT22;16985;50.814;8.530;2022-09-01T17:13:11;23.60;49.10
30174;DHT22;16985;50.814;8.530;2022-09-01T17:15:49;23.50;49.20
30174;DHT22;16985;50.814;8.530;2022-09-01T17:18:52;23.40;49.30